Time;durP1;ratioP1;P1;durP2;ratioP2;P2;SDS_P1;SDS_P2;PMS_P1;PMS_P2;Temp;Humidity;BMP_temperature;BMP_pressure;BME280_temperature;BME280_humidity;BME280_pressure;Samples;Min_cycle;Max_cycle;Signal;HPM_P1;HPM_P2
2022/12/08 06:53:26;;;;;;;115.12;60.33;;;;;;;-2.20;100.00;97822.00;1827873;78;20946;-62
2022/12/08 06:55:53;;;;;;;81.50;48.63;;;;;;;-2.11;100.00;97819.41;1827724;78;21995;-61
2022/12/08 06:58:20;;;;;;;68.57;39.33;;;;;;;-2.05;100.00;97817.26;1827776;78;20912;-62
2022/12/08 07:00:46;;;;;;;60.80;38.65;;;;;;;-1.96;100.00;97820.41;1827748;78;20867;-66
2022/12/08 07:03:13;;;;;;;45.85;32.03;;;;;;;-1.90;100.00;97813.78;1827789;78;20911;-65
2022/12/08 07:05:40;;;;;;;59.77;36.30;;;;;;;-1.82;100.00;97814.84;1827770;78;20986;-62
2022/12/08 07:08:07;;;;;;;60.78;37.95;;;;;;;-1.77;100.00;97818.93;1827730;78;21111;-65
2022/12/08 07:10:34;;;;;;;60.70;40.15;;;;;;;-1.72;100.00;97817.75;1827646;78;20868;-62
2022/12/08 07:13:02;;;;;;;66.82;42.58;;;;;;;-1.70;100.00;97813.11;1827828;78;20868;-62
2022/12/08 07:15:28;;;;;;;77.05;43.98;;;;;;;-1.69;100.00;97816.52;1828012;78;21485;-63
2022/12/08 07:17:55;;;;;;;87.65;48.55;;;;;;;-1.62;100.00;97819.38;1827795;78;20884;-65
2022/12/08 07:20:22;;;;;;;103.20;57.50;;;;;;;-1.52;100.00;97817.06;1827694;78;21518;-63
2022/12/08 07:22:50;;;;;;;94.55;54.03;;;;;;;-1.42;100.00;97818.69;1827752;78;20959;-63
2022/12/08 07:25:17;;;;;;;87.10;52.75;;;;;;;-1.30;100.00;97819.27;1829289;78;21525;-66
2022/12/08 07:27:45;;;;;;;103.62;62.85;;;;;;;-1.17;100.00;97819.91;1831469;78;21323;-67
2022/12/08 07:30:13;;;;;;;89.25;55.03;;;;;;;-1.02;100.00;97826.12;1830101;78;21000;-63
2022/12/08 07:32:40;;;;;;;66.97;44.00;;;;;;;-0.91;100.00;97824.05;1827528;78;21162;-61
2022/12/08 07:35:08;;;;;;;70.00;42.35;;;;;;;-0.83;100.00;97825.89;1826074;78;20888;-61
2022/12/08 07:37:36;;;;;;;70.67;46.58;;;;;;;-0.77;100.00;97821.55;1825061;78;21403;-61
2022/12/08 07:40:06;;;;;;;79.32;50.55;;;;;;;-0.69;100.00;97833.09;1822265;78;20919;-61
2022/12/08 07:42:33;;;;;;;96.20;62.20;;;;;;;-0.60;100.00;97839.64;1822312;78;21314;-60
2022/12/08 07:45:00;;;;;;;117.17;69.87;;;;;;;-0.57;100.00;97841.83;1822311;78;21231;-63
2022/12/08 07:47:26;;;;;;;163.28;89.70;;;;;;;-0.56;100.00;97842.11;1822345;78;21364;-63
2022/12/08 07:49:53;;;;;;;97.33;58.70;;;;;;;-0.55;100.00;97848.18;1821693;78;20865;-65
2022/12/08 07:52:19;;;;;;;80.17;54.18;;;;;;;-0.54;100.00;97853.20;1821649;78;20920;-63
2022/12/08 07:54:46;;;;;;;65.20;44.65;;;;;;;-0.53;100.00;97858.77;1821637;78;20887;-64
2022/12/08 07:57:13;;;;;;;73.83;49.95;;;;;;;-0.55;100.00;97856.07;1821691;78;21982;-70
2022/12/08 07:59:39;;;;;;;61.92;41.65;;;;;;;-0.50;100.00;97858.34;1821620;78;20967;-66
2022/12/08 08:02:18;;;;;;;68.12;44.42;;;;;;;-0.45;100.00;97861.11;1821536;78;20888;-65
2022/12/08 08:04:46;;;;;;;62.17;41.88;;;;;;;-0.36;100.00;97866.34;1821602;78;20920;-65
2022/12/08 08:07:13;;;;;;;53.20;36.35;;;;;;;-0.30;100.00;97861.48;1821391;78;20904;-64
2022/12/08 08:09:40;;;;;;;55.38;36.20;;;;;;;-0.20;100.00;97858.31;1821594;78;21224;-65
2022/12/08 08:12:08;;;;;;;52.13;35.50;;;;;;;-0.14;100.00;97861.34;1821580;78;20912;-64
2022/12/08 08:14:35;;;;;;;54.77;35.48;;;;;;;-0.08;100.00;97865.73;1821323;78;20979;-63
2022/12/08 08:17:02;;;;;;;54.70;36.90;;;;;;;-0.05;100.00;97862.12;1821256;78;20924;-62
2022/12/08 08:19:29;;;;;;;55.10;36.45;;;;;;;-0.01;100.00;97864.61;1809562;78;21008;-66
2022/12/08 08:21:55;;;;;;;45.45;34.20;;;;;;;0.06;100.00;97864.50;1783775;80;21213;-61
2022/12/08 08:24:23;;;;;;;53.52;37.33;;;;;;;0.12;100.00;97865.44;1808093;79;20963;-63
2022/12/08 08:26:52;;;;;;;59.08;41.88;;;;;;;0.15;100.00;97868.91;1816002;79;20940;-65
2022/12/08 08:29:20;;;;;;;73.55;46.88;;;;;;;0.19;100.00;97866.91;1809914;79;20937;-64
2022/12/08 08:31:46;;;;;;;74.12;46.80;;;;;;;0.21;100.00;97868.83;1797630;79;20932;-64
2022/12/08 08:34:13;;;;;;;86.17;55.23;;;;;;;0.26;100.00;97872.88;1802952;77;21061;-64
2022/12/08 08:36:40;;;;;;;76.53;51.37;;;;;;;0.32;100.00;97873.81;1811427;79;21050;-64
2022/12/08 08:39:06;;;;;;;66.75;46.75;;;;;;;0.40;100.00;97876.13;1812407;77;21375;-65
2022/12/08 08:41:34;;;;;;;62.05;43.58;;;;;;;0.45;100.00;97870.95;1788648;79;21396;-62
2022/12/08 08:44:00;;;;;;;60.80;41.75;;;;;;;0.50;100.00;97871.88;1811378;79;21014;-65
2022/12/08 08:46:27;;;;;;;65.62;44.20;;;;;;;0.58;100.00;97877.33;1806187;79;22014;-66
2022/12/08 08:48:53;;;;;;;61.02;41.00;;;;;;;0.67;100.00;97873.31;1806608;79;20849;-64
2022/12/08 08:51:20;;;;;;;53.38;36.50;;;;;;;0.71;100.00;97875.77;1806673;78;21494;-66
2022/12/08 08:53:47;;;;;;;49.03;33.42;;;;;;;0.78;100.00;97879.09;1805488;79;20990;-65
2022/12/08 08:56:18;;;;;;;57.62;39.63;;;;;;;0.86;100.00;97876.11;1806570;79;20875;-62
2022/12/08 08:58:47;;;;;;;74.47;48.48;;;;;;;0.91;100.00;97870.95;1806648;79;21208;-60
2022/12/08 09:01:16;;;;;;;69.03;47.45;;;;;;;0.96;100.00;97863.16;1806644;79;20833;-64
2022/12/08 09:03:44;;;;;;;68.78;41.95;;;;;;;1.02;100.00;97862.21;1806758;79;21420;-62
2022/12/08 09:06:11;;;;;;;59.38;40.55;;;;;;;1.05;100.00;97855.16;1806019;79;20888;-61
2022/12/08 09:08:39;;;;;;;60.05;36.58;;;;;;;1.08;100.00;97860.49;1806639;79;20889;-62
2022/12/08 09:11:06;;;;;;;51.98;38.13;;;;;;;1.12;100.00;97850.56;1806495;79;21459;-61
2022/12/08 09:13:34;;;;;;;48.02;34.48;;;;;;;1.20;100.00;97854.67;1808456;78;20907;-65
2022/12/08 09:16:02;;;;;;;54.13;37.15;;;;;;;1.28;100.00;97851.14;1802767;79;21025;-64
2022/12/08 09:18:29;;;;;;;50.63;36.53;;;;;;;1.38;100.00;97843.42;1785165;79;20932;-64
2022/12/08 09:20:56;;;;;;;52.67;37.85;;;;;;;1.46;100.00;97844.87;1814099;78;21005;-63
2022/12/08 09:23:23;;;;;;;50.35;36.20;;;;;;;1.51;100.00;97839.69;1815000;78;21121;-65
2022/12/08 09:25:50;;;;;;;55.15;39.27;;;;;;;1.55;100.00;97837.39;1794232;78;20996;-64
2022/12/08 09:28:20;;;;;;;52.33;38.88;;;;;;;1.61;100.00;97837.24;1801444;78;20873;-65
2022/12/08 09:30:47;;;;;;;60.40;42.13;;;;;;;1.69;100.00;97840.02;1819204;78;20971;-63
2022/12/08 09:33:15;;;;;;;61.28;41.92;;;;;;;1.68;99.75;97842.38;1819570;78;21378;-61
2022/12/08 09:35:41;;;;;;;64.65;43.00;;;;;;;1.67;99.49;97842.11;1814917;78;21223;-61
2022/12/08 09:38:08;;;;;;;62.15;43.08;;;;;;;1.68;99.10;97845.81;1817493;78;21052;-61
2022/12/08 09:40:43;;;;;;;50.20;36.63;;;;;;;1.71;99.02;97837.95;1826059;78;20850;-60
2022/12/08 09:43:42;;;;;;;47.55;36.05;;;;;;;1.72;98.67;97842.20;1830734;78;20980;-60
2022/12/08 09:46:10;;;;;;;49.85;35.80;;;;;;;1.71;98.46;97843.23;1826239;78;20930;-61
2022/12/08 09:48:41;;;;;;;43.87;30.00;;;;;;;1.77;98.31;97842.27;1821184;78;21421;-62
2022/12/08 09:51:07;;;;;;;37.42;29.00;;;;;;;1.82;98.24;97843.67;1831603;77;20895;-62
2022/12/08 09:53:44;;;;;;;41.28;27.70;;;;;;;1.85;97.70;97840.57;1804801;78;21358;-61
2022/12/08 09:56:25;;;;;;;42.35;28.25;;;;;;;1.89;97.50;97844.33;1797294;79;21439;-64
2022/12/08 09:59:21;;;;;;;39.18;28.57;;;;;;;1.94;97.37;97839.94;1820797;78;20931;-61
2022/12/08 10:01:48;;;;;;;38.58;28.32;;;;;;;2.00;96.97;97840.84;1786601;79;21240;-63
2022/12/08 10:04:32;;;;;;;37.58;26.05;;;;;;;2.03;96.83;97836.37;1811096;79;21029;-62
2022/12/08 10:07:20;;;;;;;31.20;23.32;;;;;;;2.05;96.62;97846.19;1813922;79;21040;-62
2022/12/08 10:10:03;;;;;;;29.72;20.92;;;;;;;2.06;96.47;97835.91;1796782;79;20928;-63
2022/12/08 10:12:54;;;;;;;37.30;28.17;;;;;;;2.16;96.30;97837.41;1805265;79;20893;-63
2022/12/08 10:15:42;;;;;;;46.02;29.42;;;;;;;2.25;96.18;97838.60;1810156;79;21835;-62
2022/12/08 10:18:15;;;;;;;37.65;28.07;;;;;;;2.32;95.92;97836.59;1783539;80;21546;-63
2022/12/08 10:20:44;;;;;;;37.00;27.98;;;;;;;2.36;95.46;97828.45;1783842;79;20892;-65
2022/12/08 10:23:35;;;;;;;39.73;28.23;;;;;;;2.39;95.24;97831.95;1807465;79;21705;-63
2022/12/08 10:26:14;;;;;;;39.03;29.10;;;;;;;2.39;95.00;97829.30;1802315;79;20924;-62
2022/12/08 10:28:41;;;;;;;41.40;30.48;;;;;;;2.40;94.72;97832.75;1788390;78;21819;-63
2022/12/08 10:31:18;;;;;;;37.17;27.87;;;;;;;2.39;94.45;97837.75;1786890;79;20882;-63
2022/12/08 10:33:47;;;;;;;43.60;30.95;;;;;;;2.41;94.47;97836.98;1810477;79;20892;-65
2022/12/08 10:36:20;;;;;;;44.65;30.88;;;;;;;2.44;94.32;97836.51;1805300;79;21522;-64
2022/12/08 10:38:47;;;;;;;56.08;34.65;;;;;;;2.44;94.28;97834.67;1819093;78;20869;-63
2022/12/08 10:41:18;;;;;;;43.83;31.05;;;;;;;2.48;94.31;97830.49;1821812;78;21251;-65
2022/12/08 10:43:49;;;;;;;41.28;30.32;;;;;;;2.55;94.17;97832.96;1812240;78;20937;-63
2022/12/08 10:46:21;;;;;;;39.08;28.38;;;;;;;2.60;94.03;97836.48;1800621;77;20868;-66
2022/12/08 10:49:05;;;;;;;40.65;29.02;;;;;;;2.65;93.70;97832.59;1819838;78;20865;-62
2022/12/08 10:51:41;;;;;;;40.20;29.98;;;;;;;2.66;93.38;97828.89;1816490;78;20971;-61
2022/12/08 10:54:37;;;;;;;43.25;31.15;;;;;;;2.70;93.00;97828.70;1821287;78;21054;-62
2022/12/08 10:57:03;;;;;;;39.25;29.18;;;;;;;2.72;92.56;97830.58;1822381;78;21497;-64
2022/12/08 10:59:32;;;;;;;44.00;29.40;;;;;;;2.76;92.59;97821.11;1819865;78;20998;-65
2022/12/08 11:02:00;;;;;;;52.60;34.00;;;;;;;2.83;92.43;97819.59;1820243;78;21067;-65
2022/12/08 11:04:37;;;;;;;42.25;28.75;;;;;;;2.84;92.00;97823.86;1814222;77;21027;-62
2022/12/08 11:07:09;;;;;;;35.73;27.52;;;;;;;2.86;91.93;97821.77;1819933;78;21078;-63
2022/12/08 11:09:47;;;;;;;32.93;25.23;;;;;;;2.91;91.82;97818.38;1821752;78;20872;-63
2022/12/08 11:12:19;;;;;;;35.60;25.72;;;;;;;2.96;91.53;97813.16;1820999;78;20907;-64
2022/12/08 11:14:59;;;;;;;33.67;24.57;;;;;;;2.99;91.21;97814.00;1818027;78;21010;-64
2022/12/08 11:17:27;;;;;;;34.58;24.20;;;;;;;3.01;90.78;97815.88;1817192;78;20948;-67
2022/12/08 11:20:00;;;;;;;39.63;26.85;;;;;;;2.96;90.48;97818.45;1820223;77;21920;-68
2022/12/08 11:22:40;;;;;;;33.95;24.63;;;;;;;2.94;90.25;97807.32;1807266;78;21070;-70
2022/12/08 11:25:12;;;;;;;37.33;24.18;;;;;;;2.89;89.58;97804.61;1821160;78;20960;-64
2022/12/08 11:27:48;;;;;;;28.57;22.82;;;;;;;2.85;89.23;97806.92;1821255;78;21372;-63
2022/12/08 11:30:36;;;;;;;31.77;23.10;;;;;;;2.87;89.23;97804.05;1821846;78;21387;-63
2022/12/08 11:33:21;;;;;;;26.73;20.65;;;;;;;2.89;89.07;97800.12;1821107;78;21116;-65
2022/12/08 11:36:08;;;;;;;27.25;20.15;;;;;;;2.88;88.60;97803.80;1821807;78;20908;-65
2022/12/08 11:38:35;;;;;;;26.33;20.00;;;;;;;2.85;88.43;97808.80;1820388;78;21280;-63
2022/12/08 11:41:10;;;;;;;24.43;18.52;;;;;;;2.85;88.49;97806.92;1820304;78;21094;-62
2022/12/08 11:43:51;;;;;;;27.22;20.52;;;;;;;2.89;88.20;97809.89;1819713;78;21576;-66
2022/12/08 11:46:28;;;;;;;26.48;19.67;;;;;;;2.89;88.17;97815.99;1788426;80;21225;-63
2022/12/08 11:49:10;;;;;;;41.75;27.65;;;;;;;2.94;87.99;97811.28;1788071;79;21093;-62
2022/12/08 11:51:57;;;;;;;39.58;27.48;;;;;;;2.97;87.67;97808.16;1805483;78;20929;-66
2022/12/08 11:54:31;;;;;;;35.08;24.30;;;;;;;2.93;87.65;97812.32;1818527;78;21022;-67
2022/12/08 11:57:02;;;;;;;31.77;23.98;;;;;;;2.91;87.55;97799.86;1811883;79;21082;-67
2022/12/08 11:59:44;;;;;;;55.88;32.48;;;;;;;2.88;87.58;97799.02;1795356;79;21172;-58
2022/12/08 12:02:20;;;;;;;50.85;30.65;;;;;;;2.87;87.88;97805.37;1817532;78;20998;-68
2022/12/08 12:05:00;;;;;;;44.80;29.10;;;;;;;2.83;88.30;97802.95;1816657;79;21069;-69
2022/12/08 12:07:53;;;;;;;36.45;26.15;;;;;;;2.82;88.53;97806.63;1818369;79;20892;-68
2022/12/08 12:10:41;;;;;;;33.53;22.82;;;;;;;2.83;88.84;97808.24;1807384;77;21031;-66
2022/12/08 12:13:53;;;;;;;30.40;21.57;;;;;;;2.85;89.05;97807.47;1787569;79;21245;-62
2022/12/08 12:16:37;;;;;;;34.23;21.42;;;;;;;2.87;89.22;97804.86;1812096;78;20916;-63
2022/12/08 12:19:11;;;;;;;34.48;22.37;;;;;;;2.88;89.34;97798.51;1806509;77;21032;-61
2022/12/08 12:21:41;;;;;;;37.90;24.72;;;;;;;2.89;89.47;97801.95;1818864;78;20980;-64
2022/12/08 12:24:24;;;;;;;36.20;25.05;;;;;;;2.91;89.47;97798.03;1801109;78;20904;-64
2022/12/08 12:27:08;;;;;;;40.08;26.20;;;;;;;2.90;89.19;97798.28;1821308;78;21209;-62
2022/12/08 12:29:36;;;;;;;48.42;30.57;;;;;;;2.82;89.20;97794.73;1821493;78;20829;-62
2022/12/08 12:32:06;;;;;;;39.67;29.05;;;;;;;2.78;89.41;97793.63;1800053;78;20924;-62
2022/12/08 12:34:48;;;;;;;39.85;26.93;;;;;;;2.78;89.57;97801.82;1821568;78;20892;-62
2022/12/08 12:37:24;;;;;;;36.75;24.77;;;;;;;2.80;89.67;97796.82;1820790;78;20873;-64
2022/12/08 12:39:59;;;;;;;36.98;24.50;;;;;;;2.82;89.46;97798.70;1826562;78;21205;-64
2022/12/08 12:42:43;;;;;;;39.15;25.80;;;;;;;2.80;89.36;97791.53;1824779;77;21351;-62
2022/12/08 12:45:22;;;;;;;36.40;26.33;;;;;;;2.80;89.23;97787.56;1802771;78;21477;-63
2022/12/08 12:47:58;;;;;;;36.90;27.90;;;;;;;2.76;88.98;97789.88;1820635;78;20924;-64
2022/12/08 12:53:23;;;;;;;44.55;30.30;;;;;;;2.70;89.06;97787.72;1826768;78;21121;-62
2022/12/08 12:56:02;;;;;;;44.18;29.25;;;;;;;2.72;89.08;97784.30;1793413;80;20955;-62
2022/12/08 12:58:35;;;;;;;42.70;28.47;;;;;;;2.78;89.14;97785.69;1803718;78;20968;-63
2022/12/08 13:01:13;;;;;;;37.15;25.35;;;;;;;2.78;89.13;97793.89;1825106;78;21007;-63
2022/12/08 13:03:50;;;;;;;37.08;24.67;;;;;;;2.80;89.12;97792.86;1821753;77;21525;-62
2022/12/08 13:06:34;;;;;;;41.88;27.95;;;;;;;2.76;89.07;97782.75;1807812;77;21379;-62
2022/12/08 13:09:01;;;;;;;34.23;23.20;;;;;;;2.66;88.74;97783.94;1807588;77;21000;-64
2022/12/08 13:11:28;;;;;;;35.38;24.07;;;;;;;2.48;88.72;97784.23;1821460;78;21667;-64
2022/12/08 13:14:02;;;;;;;28.73;21.62;;;;;;;2.37;89.00;97793.06;1820856;78;20912;-63
2022/12/08 13:16:38;;;;;;;27.67;22.00;;;;;;;2.28;89.21;97789.75;1801760;78;20954;-63
2022/12/08 13:19:13;;;;;;;29.37;23.15;;;;;;;2.18;89.36;97786.95;1820043;77;21187;-63
2022/12/08 13:21:44;;;;;;;32.33;24.18;;;;;;;2.08;89.65;97790.23;1814164;78;20984;-62
2022/12/08 13:24:31;;;;;;;32.65;22.77;;;;;;;2.01;89.97;97790.91;1824002;77;20982;-62
2022/12/08 13:27:10;;;;;;;28.63;22.00;;;;;;;1.95;90.12;97787.92;1813814;77;20970;-60
2022/12/08 13:29:38;;;;;;;164.47;92.30;;;;;;;1.86;90.46;97792.78;1816089;78;21211;-61
2022/12/08 13:32:14;;;;;;;234.70;124.53;;;;;;;1.82;90.72;97787.70;1825834;77;21112;-63
2022/12/08 13:34:55;;;;;;;140.07;81.10;;;;;;;1.78;90.87;97787.10;1818270;78;21043;-63
2022/12/08 13:37:30;;;;;;;161.52;112.30;;;;;;;1.71;91.02;97787.77;1815662;78;20947;-62
2022/12/08 13:40:08;;;;;;;54.42;41.35;;;;;;;1.65;91.25;97787.42;1814278;77;20904;-63
2022/12/08 13:42:48;;;;;;;49.38;35.13;;;;;;;1.58;91.39;97779.62;1813519;79;21129;-67
2022/12/08 13:45:23;;;;;;;58.40;43.25;;;;;;;1.51;91.53;97781.61;1812190;77;21563;-69
